Time;durP1;ratioP1;P1;durP2;ratioP2;P2;SDS_P1;SDS_P2;PMS_P1;PMS_P2;Temp;Humidity;BMP_temperature;BMP_pressure;BME280_temperature;BME280_humidity;BME280_pressure;Samples;Min_cycle;Max_cycle;Signal;HPM_P1;HPM_P2
2021/01/08 00:00:05;;;;;;;4.45;3.40;;;5.40;78.00;;;;;;5094627;28;20020;-41
2021/01/08 00:02:30;;;;;;;4.97;3.00;;;5.50;77.90;;;;;;5093171;28;20420;-41
2021/01/08 00:04:56;;;;;;;3.78;2.97;;;5.40;77.80;;;;;;5095034;28;20077;-41
2021/01/08 00:07:22;;;;;;;5.18;3.15;;;5.50;77.60;;;;;;5095277;28;20016;-42
2021/01/08 00:09:47;;;;;;;4.82;2.80;;;5.50;77.40;;;;;;5094928;28;20417;-41
2021/01/08 00:12:13;;;;;;;6.47;3.47;;;5.50;77.50;;;;;;5095238;28;20020;-42
2021/01/08 00:14:39;;;;;;;3.95;3.05;;;5.50;77.10;;;;;;5093237;28;20048;-41
2021/01/08 00:17:04;;;;;;;4.20;3.25;;;5.40;77.00;;;;;;5094844;28;20375;-41
2021/01/08 00:19:30;;;;;;;4.50;3.65;;;5.40;77.30;;;;;;5094471;28;20027;-41
2021/01/08 00:21:56;;;;;;;6.18;3.47;;;5.40;77.40;;;;;;5094244;28;20440;-41
2021/01/08 00:24:22;;;;;;;4.43;3.78;;;5.50;78.10;;;;;;5093453;28;20028;-42
2021/01/08 00:26:48;;;;;;;4.57;3.85;;;5.50;77.70;;;;;;5094902;28;20027;-41
2021/01/08 00:29:15;;;;;;;5.43;4.20;;;5.50;77.50;;;;;;5093623;28;20530;-42
2021/01/08 00:31:46;;;;;;;5.40;4.40;;;5.50;77.50;;;;;;5095693;28;20028;-41
2021/01/08 00:34:18;;;;;;;6.88;4.95;;;5.50;77.50;;;;;;5095162;28;20039;-41
2021/01/08 00:36:51;;;;;;;5.93;4.72;;;5.50;77.40;;;;;;5094833;28;20066;-41
2021/01/08 00:39:18;;;;;;;5.82;5.00;;;5.50;77.60;;;;;;5091082;28;20024;-41
2021/01/08 00:41:44;;;;;;;6.47;5.20;;;5.50;77.70;;;;;;5094714;28;20043;-41
2021/01/08 00:44:09;;;;;;;6.40;5.28;;;5.60;77.80;;;;;;5093996;28;20020;-42
2021/01/08 00:46:37;;;;;;;7.05;5.70;;;5.60;77.70;;;;;;5094155;28;20333;-41
2021/01/08 00:49:04;;;;;;;7.50;5.70;;;5.60;77.60;;;;;;5093382;28;20039;-41
2021/01/08 00:51:31;;;;;;;6.40;5.13;;;5.60;77.50;;;;;;5094713;28;20394;-42
2021/01/08 00:53:57;;;;;;;6.78;5.50;;;5.60;77.60;;;;;;5092954;28;20114;-42
2021/01/08 00:56:23;;;;;;;7.50;5.63;;;5.60;77.20;;;;;;5093683;28;20123;-43
2021/01/08 00:58:49;;;;;;;6.20;5.07;;;5.60;77.30;;;;;;5093332;28;20024;-41
2021/01/08 01:01:16;;;;;;;7.05;5.60;;;5.60;77.00;;;;;;5093808;28;20401;-41
2021/01/08 01:03:41;;;;;;;7.32;5.53;;;5.60;76.80;;;;;;5092396;28;20024;-41
2021/01/08 01:06:07;;;;;;;7.10;5.55;;;5.60;77.20;;;;;;5093750;28;20050;-42
2021/01/08 01:08:33;;;;;;;7.03;5.15;;;5.60;77.20;;;;;;5090629;28;20028;-42
2021/01/08 01:10:59;;;;;;;6.00;4.78;;;5.60;77.20;;;;;;5093303;28;20097;-41
2021/01/08 01:13:25;;;;;;;6.05;4.95;;;5.60;76.90;;;;;;5093451;28;20024;-42
2021/01/08 01:15:51;;;;;;;6.70;5.53;;;5.60;76.80;;;;;;5093292;28;20050;-41
2021/01/08 01:18:17;;;;;;;5.65;4.82;;;5.70;76.90;;;;;;5093819;28;20016;-42
2021/01/08 01:20:43;;;;;;;5.25;4.35;;;5.70;76.80;;;;;;5068151;28;732019;-42
2021/01/08 01:23:08;;;;;;;5.68;4.57;;;5.70;76.50;;;;;;5094864;28;20032;-42
2021/01/08 01:25:35;;;;;;;5.50;4.70;;;5.70;76.70;;;;;;5095576;28;20426;-41
2021/01/08 01:28:00;;;;;;;5.90;4.93;;;5.70;76.70;;;;;;5100129;28;20124;-41
2021/01/08 01:30:26;;;;;;;4.47;3.85;;;5.70;76.60;;;;;;5097830;28;20135;-41
2021/01/08 01:32:52;;;;;;;6.10;4.28;;;5.70;76.00;;;;;;5098823;28;20372;-41
2021/01/08 01:35:18;;;;;;;5.43;4.18;;;5.70;76.00;;;;;;5097863;28;20028;-40
2021/01/08 01:37:43;;;;;;;6.07;4.55;;;5.70;76.10;;;;;;5098487;28;20073;-41
2021/01/08 01:40:10;;;;;;;4.50;4.03;;;5.70;76.00;;;;;;5097653;28;20040;-41
2021/01/08 01:42:35;;;;;;;5.25;4.45;;;5.70;76.00;;;;;;5098475;28;20031;-41
2021/01/08 01:45:01;;;;;;;5.18;4.25;;;5.70;75.90;;;;;;5098028;28;20028;-40
2021/01/08 01:47:28;;;;;;;5.32;4.40;;;5.70;75.80;;;;;;5097865;28;20072;-41
2021/01/08 01:49:54;;;;;;;5.28;4.32;;;5.70;75.70;;;;;;5097453;28;20031;-41
2021/01/08 01:52:20;;;;;;;5.15;4.18;;;5.70;75.80;;;;;;5098184;28;20097;-41
2021/01/08 01:54:46;;;;;;;6.10;4.85;;;5.70;75.90;;;;;;5098568;28;20024;-41
2021/01/08 01:57:12;;;;;;;7.10;5.18;;;5.70;75.90;;;;;;5099265;28;20119;-41
2021/01/08 01:59:37;;;;;;;6.15;4.80;;;5.70;75.70;;;;;;5098313;28;20021;-41
2021/01/08 02:02:21;;;;;;;6.85;4.80;;;5.70;75.60;;;;;;5099343;28;20504;-41
2021/01/08 02:04:47;;;;;;;6.07;4.85;;;5.70;75.60;;;;;;5098226;28;20043;-41
2021/01/08 02:07:14;;;;;;;6.60;4.95;;;5.70;75.50;;;;;;5098984;28;20042;-41
2021/01/08 02:09:40;;;;;;;6.90;5.32;;;5.70;75.60;;;;;;5098392;28;20123;-41
2021/01/08 02:12:07;;;;;;;6.53;5.20;;;5.70;75.30;;;;;;5099285;28;20360;-42
2021/01/08 02:14:35;;;;;;;6.10;4.97;;;5.70;75.40;;;;;;5097995;28;20036;-41
2021/01/08 02:17:01;;;;;;;5.95;4.45;;;5.60;75.20;;;;;;5099398;28;20401;-41
2021/01/08 02:19:44;;;;;;;7.13;5.20;;;5.60;75.40;;;;;;5097938;28;20376;-41
2021/01/08 02:22:16;;;;;;;5.88;4.93;;;5.60;75.00;;;;;;5098572;28;20044;-41
2021/01/08 02:25:04;;;;;;;6.53;4.82;;;5.60;75.10;;;;;;5098336;28;20028;-41
2021/01/08 02:27:31;;;;;;;6.38;5.13;;;5.60;75.20;;;;;;5098636;28;20020;-41
2021/01/08 02:29:58;;;;;;;7.05;5.22;;;5.60;74.90;;;;;;5098090;28;20036;-41
2021/01/08 02:32:25;;;;;;;6.55;5.18;;;5.50;75.00;;;;;;5098730;28;20085;-41
2021/01/08 02:34:51;;;;;;;6.97;5.20;;;5.60;75.10;;;;;;5098159;28;20440;-41
2021/01/08 02:37:18;;;;;;;9.50;5.90;;;5.60;75.10;;;;;;5097356;28;20067;-41
2021/01/08 02:39:45;;;;;;;6.45;4.97;;;5.60;75.40;;;;;;5098060;28;20323;-42
2021/01/08 02:42:14;;;;;;;7.72;5.63;;;5.60;75.30;;;;;;5098501;28;20357;-41
2021/01/08 02:44:40;;;;;;;8.38;5.30;;;5.60;75.20;;;;;;5097638;28;20063;-41
2021/01/08 02:47:06;;;;;;;7.47;5.45;;;5.60;74.90;;;;;;5098255;28;20051;-42
2021/01/08 02:49:32;;;;;;;7.97;5.35;;;5.60;74.60;;;;;;5097434;28;20032;-41
2021/01/08 02:52:02;;;;;;;7.30;5.35;;;5.60;74.80;;;;;;5097673;28;20494;-42
2021/01/08 02:54:28;;;;;;;7.75;5.53;;;5.50;74.40;;;;;;5097463;28;20123;-41
2021/01/08 02:56:56;;;;;;;9.75;6.32;;;5.50;74.70;;;;;;5098420;28;20028;-41
2021/01/08 02:59:23;;;;;;;8.68;6.68;;;5.50;74.80;;;;;;5096619;28;20053;-41
2021/01/08 03:01:49;;;;;;;8.68;6.32;;;5.50;74.70;;;;;;5097842;28;20042;-41
2021/01/08 03:04:15;;;;;;;10.60;6.80;;;5.50;74.60;;;;;;5097424;28;20032;-41
2021/01/08 03:06:44;;;;;;;8.93;6.63;;;5.60;74.30;;;;;;5098482;28;20105;-41
2021/01/08 03:09:10;;;;;;;10.10;6.82;;;5.50;74.10;;;;;;5097234;28;20138;-41
2021/01/08 03:11:36;;;;;;;9.63;6.57;;;5.50;74.00;;;;;;5098478;28;20027;-41
2021/01/08 03:14:04;;;;;;;9.77;6.57;;;5.50;74.10;;;;;;5097318;28;20024;-42
2021/01/08 03:16:29;;;;;;;10.57;7.55;;;5.50;74.10;;;;;;5098325;28;20032;-41
2021/01/08 03:18:55;;;;;;;11.75;8.00;;;5.50;74.30;;;;;;5097307;28;20055;-42
2021/01/08 03:21:21;;;;;;;12.73;7.75;;;5.50;74.10;;;;;;5097559;28;20081;-41
2021/01/08 03:23:46;;;;;;;12.55;7.85;;;5.50;74.20;;;;;;5097420;28;20330;-42
2021/01/08 03:26:12;;;;;;;10.60;7.57;;;5.50;74.10;;;;;;5097673;28;20035;-41
2021/01/08 03:28:38;;;;;;;11.85;8.40;;;5.50;74.10;;;;;;5097540;28;20069;-42
2021/01/08 03:31:04;;;;;;;11.27;8.02;;;5.50;74.00;;;;;;5097809;28;20363;-42
2021/01/08 03:33:29;;;;;;;13.98;8.95;;;5.50;74.00;;;;;;5097552;28;20093;-42
2021/01/08 03:35:55;;;;;;;13.65;8.88;;;5.50;74.00;;;;;;5097338;28;20064;-41
2021/01/08 03:38:20;;;;;;;12.50;8.50;;;5.50;74.00;;;;;;5097453;28;20034;-42
2021/01/08 03:40:46;;;;;;;13.55;9.73;;;5.50;74.10;;;;;;5097187;28;20032;-41
2021/01/08 03:43:12;;;;;;;13.20;8.88;;;5.50;73.70;;;;;;5096777;28;20024;-42
2021/01/08 03:45:38;;;;;;;16.00;9.45;;;5.50;73.60;;;;;;5096672;28;20028;-41
2021/01/08 03:48:04;;;;;;;16.42;10.18;;;5.50;73.50;;;;;;5096898;28;20032;-41
2021/01/08 03:50:30;;;;;;;15.88;10.05;;;5.50;73.60;;;;;;5096499;28;20032;-41
2021/01/08 03:52:56;;;;;;;16.95;10.85;;;5.50;73.60;;;;;;5097158;28;20322;-41
2021/01/08 03:55:22;;;;;;;15.98;10.52;;;5.50;73.60;;;;;;5096305;28;20081;-41
2021/01/08 03:57:48;;;;;;;18.52;11.10;;;5.50;73.50;;;;;;5097146;28;20027;-42
2021/01/08 04:00:14;;;;;;;17.95;11.95;;;5.50;73.60;;;;;;5096415;28;20349;-42
2021/01/08 04:02:40;;;;;;;20.35;12.27;;;5.50;73.60;;;;;;5096573;28;20020;-42
2021/01/08 04:05:06;;;;;;;20.52;13.30;;;5.40;73.40;;;;;;5096067;28;20031;-41
2021/01/08 04:07:32;;;;;;;22.15;13.55;;;5.50;73.50;;;;;;5097006;28;20044;-41
2021/01/08 04:09:58;;;;;;;20.17;13.10;;;5.50;73.50;;;;;;5096441;28;20070;-41
2021/01/08 04:12:24;;;;;;;24.40;13.65;;;5.40;73.70;;;;;;5096546;28;20069;-41
2021/01/08 04:14:49;;;;;;;22.08;14.18;;;5.40;73.50;;;;;;5096171;28;20116;-41
2021/01/08 04:17:15;;;;;;;22.75;13.85;;;5.40;73.40;;;;;;5096500;28;20421;-42
2021/01/08 04:19:41;;;;;;;21.52;14.40;;;5.40;73.30;;;;;;5095828;28;20087;-40
2021/01/08 04:22:06;;;;;;;24.75;15.43;;;5.40;73.20;;;;;;5096544;28;20321;-43
2021/01/08 04:24:32;;;;;;;24.42;14.70;;;5.40;73.30;;;;;;5095822;28;20030;-42
2021/01/08 04:26:58;;;;;;;22.45;14.52;;;5.30;73.10;;;;;;5096630;28;20124;-42
2021/01/08 04:29:24;;;;;;;26.02;14.88;;;5.30;73.30;;;;;;5095885;28;20094;-42
2021/01/08 04:31:49;;;;;;;25.50;15.77;;;5.30;73.30;;;;;;5094486;28;20034;-42
2021/01/08 04:34:15;;;;;;;27.50;15.82;;;5.30;73.40;;;;;;5093668;28;20283;-43
2021/01/08 04:36:41;;;;;;;27.40;15.93;;;5.20;73.60;;;;;;5095263;28;20414;-43
2021/01/08 04:39:06;;;;;;;32.25;16.23;;;5.30;74.20;;;;;;5094225;28;20052;-43
2021/01/08 04:41:34;;;;;;;28.00;15.98;;;5.20;73.70;;;;;;5095193;28;20036;-42
2021/01/08 04:44:01;;;;;;;31.67;16.20;;;5.30;73.70;;;;;;5094518;28;20016;-43
2021/01/08 04:46:31;;;;;;;26.75;16.13;;;5.20;73.50;;;;;;5094526;28;20655;-43
2021/01/08 04:49:15;;;;;;;24.10;14.23;;;5.30;73.60;;;;;;5093978;28;20088;-43
2021/01/08 04:51:43;;;;;;;27.17;15.82;;;5.30;73.80;;;;;;5094204;28;20298;-43
2021/01/08 04:54:09;;;;;;;26.80;16.35;;;5.30;73.80;;;;;;5094035;28;20311;-43
2021/01/08 04:56:42;;;;;;;26.80;15.90;;;5.30;73.80;;;;;;5095779;28;20024;-43
2021/01/08 04:59:08;;;;;;;24.15;15.82;;;5.30;73.70;;;;;;5095490;28;20020;-43
2021/01/08 05:01:35;;;;;;;26.33;16.27;;;5.30;74.00;;;;;;5096471;28;20378;-43
2021/01/08 05:04:01;;;;;;;26.65;16.17;;;5.40;74.20;;;;;;5095421;28;20020;-43
2021/01/08 05:06:27;;;;;;;26.60;16.05;;;5.40;73.80;;;;;;5095992;28;20031;-43
2021/01/08 05:08:52;;;;;;;25.05;15.48;;;5.40;73.50;;;;;;5095808;28;20429;-43
2021/01/08 05:11:24;;;;;;;25.60;16.30;;;5.40;73.20;;;;;;5094628;28;20108;-42
2021/01/08 05:13:58;;;;;;;25.08;15.23;;;5.40;72.90;;;;;;5094572;28;20093;-41
2021/01/08 05:16:26;;;;;;;23.67;14.55;;;5.40;73.00;;;;;;5094388;28;20020;-40
2021/01/08 05:18:54;;;;;;;26.80;15.52;;;5.40;72.90;;;;;;5094578;28;20028;-42
2021/01/08 05:21:20;;;;;;;21.98;13.43;;;5.40;73.00;;;;;;5095522;28;20063;-43
2021/01/08 05:23:49;;;;;;;22.38;13.38;;;5.40;72.70;;;;;;5095215;28;20016;-42
2021/01/08 05:26:15;;;;;;;22.23;13.68;;;5.40;72.90;;;;;;5095484;28;20421;-42
2021/01/08 05:28:47;;;;;;;23.30;13.57;;;5.40;72.70;;;;;;5095358;28;20032;-42
2021/01/08 05:31:14;;;;;;;23.83;14.05;;;5.40;72.40;;;;;;5095729;28;20118;-42
2021/01/08 05:33:41;;;;;;;23.08;14.13;;;5.40;72.40;;;;;;5095116;28;20024;-42
2021/01/08 05:36:09;;;;;;;23.58;14.95;;;5.40;72.00;;;;;;5095757;28;20028;-42
2021/01/08 05:38:39;;;;;;;22.33;13.35;;;5.40;72.20;;;;;;5095502;28;20059;-42
2021/01/08 05:41:04;;;;;;;25.33;14.88;;;5.40;72.30;;;;;;5095533;28;20030;-42
2021/01/08 05:43:30;;;;;;;23.33;14.80;;;5.40;72.50;;;;;;5095693;28;20047;-43
2021/01/08 05:46:17;;;;;;;27.27;15.27;;;5.40;72.50;;;;;;5095708;28;20032;-42
2021/01/08 05:48:47;;;;;;;23.67;13.38;;;5.40;72.30;;;;;;5095218;28;20032;-42
2021/01/08 05:51:15;;;;;;;24.57;14.13;;;5.40;72.50;;;;;;5094485;28;20120;-42
2021/01/08 05:53:42;;;;;;;22.80;15.10;;;5.40;72.40;;;;;;5095248;28;20085;-42
2021/01/08 05:56:13;;;;;;;26.75;14.68;;;5.40;72.30;;;;;;5095260;28;20338;-42
2021/01/08 05:58:39;;;;;;;24.58;14.60;;;5.40;72.20;;;;;;5094925;28;20035;-42
2021/01/08 06:01:05;;;;;;;27.38;15.23;;;5.40;72.40;;;;;;5094993;28;20024;-42
2021/01/08 06:03:31;;;;;;;29.30;15.88;;;5.50;72.50;;;;;;5094608;28;20020;-43
2021/01/08 06:06:01;;;;;;;26.90;15.35;;;5.50;72.30;;;;;;5093995;28;20035;-42
2021/01/08 06:08:37;;;;;;;27.92;16.45;;;5.50;72.00;;;;;;5092468;28;20036;-42
2021/01/08 06:11:06;;;;;;;29.13;15.73;;;5.50;72.00;;;;;;5089910;28;20556;-44
2021/01/08 06:13:35;;;;;;;27.60;15.80;;;5.50;72.20;;;;;;5094408;28;20027;-44
2021/01/08 06:16:04;;;;;;;29.77;16.17;;;5.50;72.30;;;;;;5097071;28;20177;-44
2021/01/08 06:18:36;;;;;;;25.25;15.50;;;5.50;72.20;;;;;;5080374;28;20036;-44
2021/01/08 06:21:07;;;;;;;26.58;14.05;;;5.50;72.10;;;;;;5098919;28;20093;-42
2021/01/08 06:23:39;;;;;;;29.13;15.85;;;5.50;72.00;;;;;;5097067;28;20430;-40
2021/01/08 06:26:06;;;;;;;23.17;14.68;;;5.60;72.20;;;;;;5096636;28;20032;-40
2021/01/08 06:28:45;;;;;;;26.70;14.52;;;5.60;72.00;;;;;;5097850;28;20119;-43
2021/01/08 06:31:22;;;;;;;22.70;13.68;;;5.60;71.80;;;;;;5092508;28;20039;-42
2021/01/08 06:33:51;;;;;;;25.92;14.77;;;5.60;71.70;;;;;;5097736;28;20429;-40
2021/01/08 06:36:19;;;;;;;31.45;16.25;;;5.60;71.60;;;;;;5097815;28;20032;-41
2021/01/08 06:38:54;;;;;;;32.85;18.73;;;5.60;71.60;;;;;;5098217;28;20027;-42
2021/01/08 06:41:20;;;;;;;31.85;16.08;;;5.60;71.60;;;;;;5098831;28;20039;-42
2021/01/08 06:43:49;;;;;;;27.60;15.50;;;5.60;71.60;;;;;;5097966;28;20031;-42
2021/01/08 06:46:36;;;;;;;27.40;15.98;;;5.60;71.60;;;;;;5097817;28;20032;-42
2021/01/08 06:49:12;;;;;;;25.08;14.55;;;5.60;71.40;;;;;;5096914;28;20032;-41
2021/01/08 06:51:40;;;;;;;26.17;14.65;;;5.60;71.40;;;;;;5082274;28;20033;-41
2021/01/08 06:54:07;;;;;;;27.15;14.77;;;5.60;70.90;;;;;;5074773;28;20025;-42
2021/01/08 06:56:41;;;;;;;25.85;14.63;;;5.50;70.70;;;;;;5076692;28;20067;-41
2021/01/08 06:59:09;;;;;;;37.63;20.08;;;5.50;70.90;;;;;;5076944;28;20046;-41
2021/01/08 07:01:58;;;;;;;25.65;14.30;;;5.50;71.00;;;;;;5077277;28;20036;-41
2021/01/08 07:04:37;;;;;;;22.15;13.18;;;5.40;71.00;;;;;;5084837;28;20138;-41
2021/01/08 07:07:04;;;;;;;24.38;14.60;;;5.40;70.80;;;;;;5097370;28;20035;-43
2021/01/08 07:09:36;;;;;;;23.08;14.10;;;5.40;70.90;;;;;;5097102;28;20047;-42
2021/01/08 07:12:07;;;;;;;22.42;12.95;;;5.40;70.70;;;;;;5097781;28;20308;-43
2021/01/08 07:14:35;;;;;;;25.38;14.38;;;5.40;70.80;;;;;;5097287;28;20028;-43
2021/01/08 07:17:04;;;;;;;22.85;14.32;;;5.40;70.80;;;;;;5097662;28;20047;-44
2021/01/08 07:19:31;;;;;;;23.42;13.73;;;5.40;70.70;;;;;;5096955;28;20020;-43
2021/01/08 07:22:00;;;;;;;25.27;14.80;;;5.40;70.60;;;;;;5097765;28;20043;-44
2021/01/08 07:24:34;;;;;;;27.63;15.02;;;5.40;70.70;;;;;;5095031;28;20357;-42
2021/01/08 07:27:19;;;;;;;25.58;14.00;;;5.50;70.70;;;;;;5097713;28;20048;-42
2021/01/08 07:29:57;;;;;;;21.45;12.73;;;5.50;70.90;;;;;;5095034;28;20040;-43
2021/01/08 07:32:51;;;;;;;23.08;13.20;;;5.50;71.10;;;;;;5077337;28;20023;-42
2021/01/08 07:35:23;;;;;;;23.15;12.93;;;5.60;71.20;;;;;;5076289;28;20028;-42
2021/01/08 07:38:13;;;;;;;27.35;14.38;;;5.60;71.30;;;;;;5079207;28;20124;-43
2021/01/08 07:41:05;;;;;;;21.77;13.20;;;5.60;71.10;;;;;;5095850;28;20058;-42
2021/01/08 07:43:35;;;;;;;18.42;11.27;;;5.60;70.90;;;;;;5085758;28;20084;-42
2021/01/08 07:46:03;;;;;;;17.48;10.98;;;5.60;70.50;;;;;;5095631;28;20345;-42
2021/01/08 07:48:36;;;;;;;18.60;10.45;;;5.60;69.90;;;;;;5095219;28;20047;-42
2021/01/08 07:51:08;;;;;;;21.42;11.00;;;5.60;69.70;;;;;;5095694;28;20024;-43
2021/01/08 07:53:49;;;;;;;17.45;10.75;;;5.60;69.90;;;;;;5094967;28;20020;-42
2021/01/08 07:56:24;;;;;;;16.02;8.77;;;5.60;69.90;;;;;;5083266;28;20031;-41
2021/01/08 07:58:59;;;;;;;13.73;8.98;;;5.70;69.50;;;;;;5076727;28;20408;-42
2021/01/08 08:01:26;;;;;;;15.57;9.45;;;5.60;69.10;;;;;;5076509;28;20124;-42
2021/01/08 08:04:06;;;;;;;15.50;8.93;;;5.60;69.10;;;;;;5092218;28;20031;-42
2021/01/08 08:06:41;;;;;;;15.23;9.50;;;5.60;69.30;;;;;;5097816;28;20028;-41
2021/01/08 08:09:13;;;;;;;14.98;9.23;;;5.60;69.00;;;;;;5096087;28;20035;-41
2021/01/08 08:11:39;;;;;;;14.60;8.50;;;5.70;69.00;;;;;;5097157;28;20036;-41
2021/01/08 08:14:07;;;;;;;16.35;9.93;;;5.70;68.90;;;;;;5096737;28;20123;-43
2021/01/08 08:16:39;;;;;;;15.05;9.43;;;5.70;69.10;;;;;;5096561;28;20030;-42
2021/01/08 08:19:07;;;;;;;14.50;9.73;;;5.70;69.00;;;;;;5096388;28;20032;-43
2021/01/08 08:21:33;;;;;;;15.98;10.20;;;5.70;69.00;;;;;;5091453;28;20311;-41
2021/01/08 08:24:03;;;;;;;18.17;10.65;;;5.80;69.20;;;;;;5096512;28;20028;-42
2021/01/08 08:26:31;;;;;;;19.90;11.02;;;5.80;69.20;;;;;;5095577;28;20036;-41
2021/01/08 08:29:07;;;;;;;17.85;9.63;;;5.80;69.20;;;;;;5084631;28;20480;-41
2021/01/08 08:31:35;;;;;;;33.78;15.48;;;5.90;69.20;;;;;;5078341;28;20032;-41
2021/01/08 08:34:01;;;;;;;19.23;10.98;;;5.90;69.20;;;;;;5075876;28;20023;-41
2021/01/08 08:36:30;;;;;;;17.20;10.38;;;6.00;69.10;;;;;;5076353;28;20063;-43
2021/01/08 08:38:58;;;;;;;19.75;11.07;;;6.00;69.00;;;;;;5075110;28;20319;-43
2021/01/08 08:41:23;;;;;;;21.75;11.85;;;6.00;69.10;;;;;;5089971;28;20055;-43
2021/01/08 08:43:58;;;;;;;19.58;11.82;;;6.00;68.70;;;;;;5098183;28;20047;-42
2021/01/08 08:46:24;;;;;;;18.27;11.70;;;6.00;68.70;;;;;;5097468;28;20038;-43
2021/01/08 08:48:50;;;;;;;16.95;10.77;;;6.00;68.70;;;;;;5091848;28;20039;-43
2021/01/08 08:51:23;;;;;;;18.15;10.75;;;6.00;68.00;;;;;;5082961;28;20322;-42
2021/01/08 08:53:57;;;;;;;19.98;11.25;;;6.00;67.60;;;;;;5093346;28;20027;-42
2021/01/08 08:56:23;;;;;;;19.40;11.20;;;6.00;67.50;;;;;;5075729;28;20024;-44
2021/01/08 08:58:49;;;;;;;19.83;11.52;;;6.00;67.20;;;;;;5073897;28;20028;-44
2021/01/08 09:01:14;;;;;;;20.02;11.25;;;5.90;67.30;;;;;;5073779;28;20044;-43
2021/01/08 09:03:40;;;;;;;17.02;9.50;;;5.90;67.70;;;;;;5074317;28;20099;-43
2021/01/08 09:06:13;;;;;;;19.52;11.27;;;5.90;67.60;;;;;;5075678;28;20052;-43
2021/01/08 09:08:43;;;;;;;16.00;9.75;;;5.90;67.20;;;;;;5074532;28;20182;-43
2021/01/08 09:11:36;;;;;;;18.17;10.23;;;5.80;67.10;;;;;;5092390;28;20359;-44
2021/01/08 09:14:11;;;;;;;23.35;10.77;;;5.80;67.00;;;;;;5095304;28;20036;-43
2021/01/08 09:16:45;;;;;;;15.82;10.07;;;5.70;67.20;;;;;;5095580;28;20077;-43
2021/01/08 09:19:20;;;;;;;17.75;10.50;;;5.70;67.20;;;;;;5094737;28;20055;-43
2021/01/08 09:21:50;;;;;;;18.42;10.50;;;5.70;67.10;;;;;;5095811;28;20055;-43
2021/01/08 09:24:39;;;;;;;17.52;10.90;;;5.70;67.30;;;;;;5094772;28;20056;-43
2021/01/08 09:27:10;;;;;;;15.57;9.38;;;5.60;66.90;;;;;;5093887;28;20082;-43
2021/01/08 09:29:36;;;;;;;15.40;9.75;;;5.60;67.00;;;;;;5094890;28;20050;-43
2021/01/08 09:32:03;;;;;;;14.07;9.43;;;5.60;66.90;;;;;;5095390;28;20150;-43
2021/01/08 09:34:30;;;;;;;17.50;9.93;;;5.60;66.80;;;;;;5094406;28;20058;-43
2021/01/08 09:36:58;;;;;;;16.27;9.88;;;5.50;66.50;;;;;;5094840;28;20024;-44
2021/01/08 09:39:29;;;;;;;14.50;10.07;;;5.50;66.80;;;;;;5094241;28;20017;-43
2021/01/08 09:41:57;;;;;;;17.92;9.95;;;5.50;67.00;;;;;;5095254;28;20027;-44
2021/01/08 09:44:37;;;;;;;17.63;11.40;;;5.50;67.50;;;;;;5094684;28;20080;-44
2021/01/08 09:47:08;;;;;;;15.38;9.75;;;5.50;67.30;;;;;;5095697;28;20032;-44
2021/01/08 09:49:38;;;;;;;;;;;5.50;67.30;;;;;;5099109;28;20047;-43
2021/01/08 09:52:05;;;;;;;19.08;10.50;;;5.50;67.70;;;;;;5098505;28;19908;-43
2021/01/08 09:54:42;;;;;;;17.48;10.48;;;5.50;67.50;;;;;;5098518;28;20032;-43
2021/01/08 09:57:09;;;;;;;18.90;11.32;;;5.50;67.50;;;;;;5098662;28;20024;-44
2021/01/08 09:59:35;;;;;;;17.55;11.73;;;5.50;67.80;;;;;;5097227;28;20022;-42
2021/01/08 10:02:06;;;;;;;17.50;10.88;;;5.60;67.90;;;;;;5100650;28;20020;-43
2021/01/08 10:04:34;;;;;;;20.30;11.80;;;5.60;67.70;;;;;;5097771;28;20032;-41
2021/01/08 10:07:04;;;;;;;15.57;10.30;;;5.60;67.40;;;;;;5102227;28;20512;-41
2021/01/08 10:09:50;;;;;;;17.67;10.98;;;5.60;67.10;;;;;;5098294;28;20455;-41
2021/01/08 10:12:20;;;;;;;17.38;11.05;;;5.60;67.20;;;;;;5097715;28;20032;-42
2021/01/08 10:14:46;;;;;;;22.23;12.70;;;5.70;67.20;;;;;;5094564;28;20039;-43
2021/01/08 10:17:13;;;;;;;16.52;11.13;;;5.70;67.30;;;;;;5086138;28;20025;-43
2021/01/08 10:19:41;;;;;;;17.42;11.13;;;5.60;67.00;;;;;;5094076;28;20519;-42
2021/01/08 10:22:07;;;;;;;21.73;11.77;;;5.60;67.00;;;;;;5097681;28;20115;-40
2021/01/08 10:24:32;;;;;;;17.00;11.32;;;5.60;67.10;;;;;;5095021;28;20390;-44
2021/01/08 10:26:58;;;;;;;18.63;12.07;;;5.60;66.90;;;;;;5096546;28;20020;-42
2021/01/08 10:29:35;;;;;;;17.65;10.18;;;5.60;67.00;;;;;;5097072;28;20067;-40
2021/01/08 10:32:11;;;;;;;16.83;11.23;;;5.60;67.20;;;;;;5098893;28;20022;-41
2021/01/08 10:34:42;;;;;;;18.13;11.27;;;5.60;67.20;;;;;;5098125;28;20106;-40
2021/01/08 10:37:18;;;;;;;20.08;12.55;;;5.60;66.90;;;;;;5098030;28;20444;-43
2021/01/08 10:39:44;;;;;;;17.67;11.75;;;5.60;67.00;;;;;;5090890;28;20099;-41
2021/01/08 10:42:11;;;;;;;15.80;10.55;;;5.60;67.00;;;;;;5095220;28;20032;-42
2021/01/08 10:44:38;;;;;;;13.40;8.75;;;5.60;66.80;;;;;;5095126;28;20077;-40
2021/01/08 10:47:04;;;;;;;16.30;10.35;;;5.60;67.20;;;;;;5098216;28;20055;-41
2021/01/08 10:49:30;;;;;;;22.08;12.40;;;5.60;67.20;;;;;;5097178;28;20036;-40
2021/01/08 10:51:59;;;;;;;21.15;13.73;;;5.60;67.00;;;;;;5097270;28;20073;-42
2021/01/08 10:54:25;;;;;;;18.70;11.18;;;5.70;66.90;;;;;;5092579;28;20016;-41
2021/01/08 10:56:51;;;;;;;18.45;11.63;;;5.70;67.00;;;;;;5089690;28;20053;-42
2021/01/08 10:59:16;;;;;;;21.70;13.10;;;5.70;67.10;;;;;;5082001;28;20070;-41
2021/01/08 11:01:44;;;;;;;17.60;10.80;;;5.70;67.00;;;;;;5097951;28;20035;-40
2021/01/08 11:04:10;;;;;;;20.02;12.48;;;5.70;67.00;;;;;;5095975;28;20024;-41
2021/01/08 11:06:39;;;;;;;20.05;12.18;;;5.80;67.10;;;;;;5098529;28;20028;-41
2021/01/08 11:09:06;;;;;;;16.80;10.38;;;5.80;66.80;;;;;;5097112;28;20319;-41
2021/01/08 11:11:33;;;;;;;15.88;11.30;;;5.80;66.70;;;;;;5098082;28;20039;-41
2021/01/08 11:13:58;;;;;;;16.42;10.80;;;5.80;66.70;;;;;;5097361;28;20024;-41
2021/01/08 11:16:24;;;;;;;18.02;10.88;;;5.80;66.80;;;;;;5098058;28;20363;-41
2021/01/08 11:18:50;;;;;;;16.98;11.40;;;5.90;66.40;;;;;;5093016;28;20069;-41
2021/01/08 11:21:22;;;;;;;29.58;15.23;;;5.90;66.50;;;;;;5087149;28;20083;-40
2021/01/08 11:23:49;;;;;;;20.65;12.55;;;5.90;67.10;;;;;;5075329;28;20024;-40
2021/01/08 11:26:28;;;;;;;20.70;12.18;;;5.90;66.30;;;;;;5075018;28;20029;-40
2021/01/08 11:28:58;;;;;;;16.85;10.93;;;5.90;66.50;;;;;;5080948;28;20043;-40
2021/01/08 11:31:34;;;;;;;15.85;11.10;;;5.90;65.70;;;;;;5075819;28;20131;-40
2021/01/08 11:34:04;;;;;;;18.00;11.40;;;5.90;65.40;;;;;;5074970;28;20068;-40
2021/01/08 11:36:30;;;;;;;19.33;12.10;;;5.90;65.80;;;;;;5074212;28;20040;-40
2021/01/08 11:38:56;;;;;;;15.73;11.35;;;5.90;66.20;;;;;;5073869;28;20032;-41
2021/01/08 11:41:22;;;;;;;15.38;10.68;;;5.90;65.40;;;;;;5075628;28;20187;-40
2021/01/08 11:43:48;;;;;;;17.35;11.25;;;5.90;65.30;;;;;;5074953;28;20016;-41
2021/01/08 11:46:22;;;;;;;19.27;11.65;;;5.90;65.30;;;;;;5081335;28;20063;-40
2021/01/08 11:48:52;;;;;;;16.17;10.88;;;5.90;65.40;;;;;;5088099;28;20123;-40
2021/01/08 11:51:19;;;;;;;21.17;12.05;;;5.80;65.40;;;;;;5096224;28;20024;-40
2021/01/08 11:53:48;;;;;;;15.70;10.43;;;5.80;65.70;;;;;;5095793;28;20429;-40
2021/01/08 11:56:15;;;;;;;19.52;11.43;;;5.80;65.50;;;;;;5097079;28;20036;-40
2021/01/08 11:58:45;;;;;;;19.55;11.57;;;5.80;65.50;;;;;;5096082;28;20020;-40
2021/01/08 12:01:11;;;;;;;18.30;11.73;;;5.80;65.60;;;;;;5096533;28;20043;-40
2021/01/08 12:03:39;;;;;;;17.58;11.43;;;5.80;65.30;;;;;;5095885;28;20114;-40
2021/01/08 12:06:06;;;;;;;16.52;11.35;;;5.80;65.40;;;;;;5096233;28;20032;-40
2021/01/08 12:08:32;;;;;;;20.25;11.95;;;5.80;65.30;;;;;;5096125;28;20058;-41
2021/01/08 12:11:00;;;;;;;25.02;13.55;;;5.80;65.40;;;;;;5095711;28;20453;-40
2021/01/08 12:13:25;;;;;;;23.65;14.00;;;5.80;65.60;;;;;;5091600;28;20036;-40
2021/01/08 12:15:51;;;;;;;25.95;14.45;;;5.80;65.60;;;;;;5095703;28;20035;-40
2021/01/08 12:18:18;;;;;;;31.67;19.85;;;5.80;65.60;;;;;;5090278;28;20111;-42
2021/01/08 12:20:48;;;;;;;29.10;17.75;;;5.80;65.30;;;;;;5074802;28;20079;-40
2021/01/08 12:23:14;;;;;;;41.97;23.73;;;5.80;65.10;;;;;;5075623;28;20024;-40
2021/01/08 12:25:41;;;;;;;41.33;23.70;;;5.70;65.30;;;;;;5079347;28;20285;-40
2021/01/08 12:28:11;;;;;;;40.03;22.50;;;5.70;65.50;;;;;;5091055;28;20103;-40
2021/01/08 12:30:38;;;;;;;39.13;22.27;;;5.70;65.70;;;;;;5086351;28;20036;-40
2021/01/08 12:33:05;;;;;;;33.20;21.48;;;5.70;65.90;;;;;;5095594;28;20032;-40
2021/01/08 12:35:31;;;;;;;32.90;21.27;;;5.70;66.10;;;;;;5094725;28;20052;-40
2021/01/08 12:37:57;;;;;;;25.23;16.60;;;5.70;66.00;;;;;;5095251;28;20031;-40
2021/01/08 12:40:24;;;;;;;25.25;14.82;;;5.80;66.10;;;;;;5095190;28;20024;-41
2021/01/08 12:42:54;;;;;;;25.98;14.98;;;5.80;66.00;;;;;;5094886;28;20032;-41
2021/01/08 12:45:21;;;;;;;20.57;13.20;;;5.80;66.00;;;;;;5095488;28;20429;-40
2021/01/08 12:47:48;;;;;;;23.77;12.98;;;5.80;65.80;;;;;;5095679;28;20055;-40
2021/01/08 12:50:14;;;;;;;23.50;12.27;;;5.80;65.60;;;;;;5094575;28;20047;-40